sensor_id;sensor_type;location;lat;lon;timestamp;P1;durP1;ratioP1;P2;durP2;ratioP2
48161;SDS011;33950;48.154;16.316;2023-03-01T00:00:42;50.65;;;20.88;;
48161;SDS011;33950;48.154;16.316;2023-03-01T00:03:32;48.08;;;21.27;;
48161;SDS011;33950;48.154;16.316;2023-03-01T00:06:18;55.03;;;22.58;;
48161;SDS011;33950;48.154;16.316;2023-03-01T00:09:07;61.90;;;22.42;;
48161;SDS011;33950;48.154;16.316;2023-03-01T00:11:53;48.78;;;20.23;;
48161;SDS011;33950;48.154;16.316;2023-03-01T00:14:39;56.75;;;21.50;;
48161;SDS011;33950;48.154;16.316;2023-03-01T00:17:26;46.22;;;19.25;;
48161;SDS011;33950;48.154;16.316;2023-03-01T00:20:13;50.38;;;21.45;;
48161;SDS011;33950;48.154;16.316;2023-03-01T00:22:59;55.70;;;22.52;;
48161;SDS011;33950;48.154;16.316;2023-03-01T00:25:47;47.00;;;20.60;;
48161;SDS011;33950;48.154;16.316;2023-03-01T00:28:33;62.00;;;21.27;;
48161;SDS011;33950;48.154;16.316;2023-03-01T00:31:20;50.17;;;21.58;;
48161;SDS011;33950;48.154;16.316;2023-03-01T00:34:08;51.97;;;22.00;;
48161;SDS011;33950;48.154;16.316;2023-03-01T00:36:54;47.25;;;20.95;;
48161;SDS011;33950;48.154;16.316;2023-03-01T00:39:41;62.78;;;21.98;;
48161;SDS011;33950;48.154;16.316;2023-03-01T00:42:28;54.13;;;21.48;;
48161;SDS011;33950;48.154;16.316;2023-03-01T00:45:14;52.03;;;21.77;;
48161;SDS011;33950;48.154;16.316;2023-03-01T00:48:01;51.83;;;21.92;;
48161;SDS011;33950;48.154;16.316;2023-03-01T00:50:47;55.05;;;21.27;;
48161;SDS011;33950;48.154;16.316;2023-03-01T00:53:33;49.20;;;20.27;;
48161;SDS011;33950;48.154;16.316;2023-03-01T00:56:19;53.45;;;19.83;;
48161;SDS011;33950;48.154;16.316;2023-03-01T00:59:07;46.92;;;20.42;;
48161;SDS011;33950;48.154;16.316;2023-03-01T01:01:53;53.08;;;21.67;;
48161;SDS011;33950;48.154;16.316;2023-03-01T01:04:39;56.28;;;21.80;;
48161;SDS011;33950;48.154;16.316;2023-03-01T01:07:26;59.10;;;21.42;;
48161;SDS011;33950;48.154;16.316;2023-03-01T01:10:12;50.00;;;21.15;;
48161;SDS011;33950;48.154;16.316;2023-03-01T01:13:02;45.22;;;20.65;;
48161;SDS011;33950;48.154;16.316;2023-03-01T01:15:50;42.83;;;20.67;;
48161;SDS011;33950;48.154;16.316;2023-03-01T01:18:36;49.10;;;20.73;;
48161;SDS011;33950;48.154;16.316;2023-03-01T01:21:23;46.03;;;19.65;;
48161;SDS011;33950;48.154;16.316;2023-03-01T01:24:10;47.20;;;20.40;;
48161;SDS011;33950;48.154;16.316;2023-03-01T01:26:56;46.67;;;20.90;;
48161;SDS011;33950;48.154;16.316;2023-03-01T01:29:42;47.78;;;21.25;;
48161;SDS011;33950;48.154;16.316;2023-03-01T01:32:30;46.22;;;20.83;;
48161;SDS011;33950;48.154;16.316;2023-03-01T01:35:16;50.10;;;22.35;;
48161;SDS011;33950;48.154;16.316;2023-03-01T01:38:02;57.22;;;21.90;;
48161;SDS011;33950;48.154;16.316;2023-03-01T01:40:48;63.00;;;23.67;;
48161;SDS011;33950;48.154;16.316;2023-03-01T01:43:36;60.10;;;23.90;;
48161;SDS011;33950;48.154;16.316;2023-03-01T01:46:25;53.75;;;23.13;;
48161;SDS011;33950;48.154;16.316;2023-03-01T01:49:19;64.80;;;23.33;;
48161;SDS011;33950;48.154;16.316;2023-03-01T01:52:09;53.30;;;21.70;;
48161;SDS011;33950;48.154;16.316;2023-03-01T01:54:59;52.75;;;22.08;;
48161;SDS011;33950;48.154;16.316;2023-03-01T01:57:51;57.50;;;22.35;;
48161;SDS011;33950;48.154;16.316;2023-03-01T02:00:38;42.78;;;19.15;;
48161;SDS011;33950;48.154;16.316;2023-03-01T02:03:25;46.38;;;20.80;;
48161;SDS011;33950;48.154;16.316;2023-03-01T02:06:17;47.90;;;20.52;;
48161;SDS011;33950;48.154;16.316;2023-03-01T02:09:07;52.17;;;20.90;;
48161;SDS011;33950;48.154;16.316;2023-03-01T02:11:58;54.60;;;23.10;;
48161;SDS011;33950;48.154;16.316;2023-03-01T02:14:44;58.70;;;22.58;;
48161;SDS011;33950;48.154;16.316;2023-03-01T02:17:31;51.50;;;22.33;;
48161;SDS011;33950;48.154;16.316;2023-03-01T02:20:19;51.75;;;22.30;;
48161;SDS011;33950;48.154;16.316;2023-03-01T02:23:12;54.00;;;22.25;;
48161;SDS011;33950;48.154;16.316;2023-03-01T02:26:01;53.05;;;21.73;;
48161;SDS011;33950;48.154;16.316;2023-03-01T02:28:54;64.57;;;23.05;;
48161;SDS011;33950;48.154;16.316;2023-03-01T02:31:40;57.42;;;21.05;;
48161;SDS011;33950;48.154;16.316;2023-03-01T02:34:26;57.38;;;22.20;;
48161;SDS011;33950;48.154;16.316;2023-03-01T02:37:14;52.15;;;22.73;;
48161;SDS011;33950;48.154;16.316;2023-03-01T02:40:06;57.85;;;21.83;;
48161;SDS011;33950;48.154;16.316;2023-03-01T02:43:00;49.42;;;21.50;;
48161;SDS011;33950;48.154;16.316;2023-03-01T02:45:50;52.72;;;22.40;;
48161;SDS011;33950;48.154;16.316;2023-03-01T02:48:39;55.33;;;23.02;;
48161;SDS011;33950;48.154;16.316;2023-03-01T02:51:31;53.05;;;21.25;;
48161;SDS011;33950;48.154;16.316;2023-03-01T02:54:28;53.78;;;20.60;;
48161;SDS011;33950;48.154;16.316;2023-03-01T02:57:16;44.17;;;19.45;;
48161;SDS011;33950;48.154;16.316;2023-03-01T03:00:04;44.08;;;20.85;;
48161;SDS011;33950;48.154;16.316;2023-03-01T03:02:54;52.53;;;21.05;;
48161;SDS011;33950;48.154;16.316;2023-03-01T03:05:42;43.67;;;20.67;;
48161;SDS011;33950;48.154;16.316;2023-03-01T03:08:28;49.70;;;21.48;;
48161;SDS011;33950;48.154;16.316;2023-03-01T03:11:14;55.30;;;21.38;;
48161;SDS011;33950;48.154;16.316;2023-03-01T03:14:00;52.20;;;21.60;;
48161;SDS011;33950;48.154;16.316;2023-03-01T03:16:47;56.85;;;22.90;;
48161;SDS011;33950;48.154;16.316;2023-03-01T03:19:36;55.08;;;22.73;;
48161;SDS011;33950;48.154;16.316;2023-03-01T03:22:22;55.40;;;21.45;;
48161;SDS011;33950;48.154;16.316;2023-03-01T03:25:08;54.65;;;21.88;;
48161;SDS011;33950;48.154;16.316;2023-03-01T03:27:57;52.58;;;22.60;;
48161;SDS011;33950;48.154;16.316;2023-03-01T03:30:43;48.08;;;21.50;;
48161;SDS011;33950;48.154;16.316;2023-03-01T03:33:30;46.47;;;20.38;;
48161;SDS011;33950;48.154;16.316;2023-03-01T03:36:19;50.60;;;21.42;;
48161;SDS011;33950;48.154;16.316;2023-03-01T03:39:07;45.90;;;19.17;;
48161;SDS011;33950;48.154;16.316;2023-03-01T03:41:53;47.83;;;21.13;;
48161;SDS011;33950;48.154;16.316;2023-03-01T03:44:39;48.72;;;21.95;;
48161;SDS011;33950;48.154;16.316;2023-03-01T03:47:25;52.22;;;21.10;;
48161;SDS011;33950;48.154;16.316;2023-03-01T03:50:12;45.72;;;20.08;;
48161;SDS011;33950;48.154;16.316;2023-03-01T03:53:01;40.72;;;18.98;;
48161;SDS011;33950;48.154;16.316;2023-03-01T03:55:50;52.83;;;21.33;;
48161;SDS011;33950;48.154;16.316;2023-03-01T03:58:36;52.30;;;20.67;;
48161;SDS011;33950;48.154;16.316;2023-03-01T04:01:23;51.35;;;22.15;;
48161;SDS011;33950;48.154;16.316;2023-03-01T04:04:09;51.63;;;22.63;;
48161;SDS011;33950;48.154;16.316;2023-03-01T04:06:55;53.05;;;23.85;;
48161;SDS011;33950;48.154;16.316;2023-03-01T04:09:42;51.20;;;21.73;;
48161;SDS011;33950;48.154;16.316;2023-03-01T04:12:29;53.35;;;22.88;;
48161;SDS011;33950;48.154;16.316;2023-03-01T04:15:15;52.17;;;21.73;;
48161;SDS011;33950;48.154;16.316;2023-03-01T04:18:01;51.65;;;21.85;;
48161;SDS011;33950;48.154;16.316;2023-03-01T04:20:48;52.25;;;22.48;;
48161;SDS011;33950;48.154;16.316;2023-03-01T04:23:34;56.35;;;23.95;;
48161;SDS011;33950;48.154;16.316;2023-03-01T04:26:21;57.60;;;21.98;;
48161;SDS011;33950;48.154;16.316;2023-03-01T04:29:07;61.20;;;23.70;;
48161;SDS011;33950;48.154;16.316;2023-03-01T04:31:54;57.03;;;23.35;;
48161;SDS011;33950;48.154;16.316;2023-03-01T04:34:40;54.80;;;22.88;;
48161;SDS011;33950;48.154;16.316;2023-03-01T04:37:26;68.28;;;24.77;;
48161;SDS011;33950;48.154;16.316;2023-03-01T04:40:12;57.45;;;25.02;;
48161;SDS011;33950;48.154;16.316;2023-03-01T04:43:03;61.25;;;23.75;;
48161;SDS011;33950;48.154;16.316;2023-03-01T04:45:50;62.42;;;24.85;;
48161;SDS011;33950;48.154;16.316;2023-03-01T04:48:36;59.70;;;23.85;;
48161;SDS011;33950;48.154;16.316;2023-03-01T04:51:23;57.80;;;24.58;;
48161;SDS011;33950;48.154;16.316;2023-03-01T04:54:09;64.63;;;24.02;;
48161;SDS011;33950;48.154;16.316;2023-03-01T04:56:55;56.97;;;23.63;;
48161;SDS011;33950;48.154;16.316;2023-03-01T04:59:43;65.10;;;24.80;;
48161;SDS011;33950;48.154;16.316;2023-03-01T05:02:29;55.58;;;24.00;;
48161;SDS011;33950;48.154;16.316;2023-03-01T05:05:15;52.55;;;24.08;;
48161;SDS011;33950;48.154;16.316;2023-03-01T05:08:02;57.25;;;24.30;;
48161;SDS011;33950;48.154;16.316;2023-03-01T05:10:51;58.50;;;24.15;;
48161;SDS011;33950;48.154;16.316;2023-03-01T05:13:38;65.25;;;24.60;;
48161;SDS011;33950;48.154;16.316;2023-03-01T05:16:26;60.92;;;24.15;;
48161;SDS011;33950;48.154;16.316;2023-03-01T05:19:12;54.90;;;24.30;;
48161;SDS011;33950;48.154;16.316;2023-03-01T05:22:00;58.90;;;24.45;;
48161;SDS011;33950;48.154;16.316;2023-03-01T05:24:49;56.53;;;25.13;;
48161;SDS011;33950;48.154;16.316;2023-03-01T05:27:35;65.40;;;27.05;;
48161;SDS011;33950;48.154;16.316;2023-03-01T05:30:22;65.38;;;26.10;;
48161;SDS011;33950;48.154;16.316;2023-03-01T05:33:09;65.25;;;26.95;;
48161;SDS011;33950;48.154;16.316;2023-03-01T05:35:59;64.43;;;27.27;;
48161;SDS011;33950;48.154;16.316;2023-03-01T05:38:45;60.80;;;26.35;;
48161;SDS011;33950;48.154;16.316;2023-03-01T05:41:31;60.80;;;26.60;;
48161;SDS011;33950;48.154;16.316;2023-03-01T05:44:17;61.92;;;25.15;;
48161;SDS011;33950;48.154;16.316;2023-03-01T05:47:04;64.75;;;26.95;;
48161;SDS011;33950;48.154;16.316;2023-03-01T05:49:51;56.20;;;26.38;;
48161;SDS011;33950;48.154;16.316;2023-03-01T05:52:37;70.90;;;28.58;;
48161;SDS011;33950;48.154;16.316;2023-03-01T05:55:24;64.63;;;28.17;;
48161;SDS011;33950;48.154;16.316;2023-03-01T05:58:11;65.88;;;26.27;;
48161;SDS011;33950;48.154;16.316;2023-03-01T06:00:59;67.22;;;26.63;;
48161;SDS011;33950;48.154;16.316;2023-03-01T06:03:45;67.05;;;27.17;;
48161;SDS011;33950;48.154;16.316;2023-03-01T06:06:34;65.35;;;27.95;;
48161;SDS011;33950;48.154;16.316;2023-03-01T06:09:22;69.17;;;27.77;;
48161;SDS011;33950;48.154;16.316;2023-03-01T06:12:09;61.63;;;27.02;;
48161;SDS011;33950;48.154;16.316;2023-03-01T06:14:55;66.53;;;26.42;;
48161;SDS011;33950;48.154;16.316;2023-03-01T06:17:41;74.05;;;27.70;;
48161;SDS011;33950;48.154;16.316;2023-03-01T06:20:29;66.32;;;27.80;;
48161;SDS011;33950;48.154;16.316;2023-03-01T06:23:16;77.55;;;29.08;;
48161;SDS011;33950;48.154;16.316;2023-03-01T06:26:04;64.40;;;26.52;;
48161;SDS011;33950;48.154;16.316;2023-03-01T06:28:51;66.45;;;28.20;;
48161;SDS011;33950;48.154;16.316;2023-03-01T06:31:37;64.43;;;27.33;;
48161;SDS011;33950;48.154;16.316;2023-03-01T06:34:23;67.40;;;28.05;;
48161;SDS011;33950;48.154;16.316;2023-03-01T06:37:09;71.30;;;28.58;;
48161;SDS011;33950;48.154;16.316;2023-03-01T06:39:57;62.80;;;27.02;;
48161;SDS011;33950;48.154;16.316;2023-03-01T06:42:44;70.35;;;29.05;;
48161;SDS011;33950;48.154;16.316;2023-03-01T06:45:37;76.68;;;29.80;;
48161;SDS011;33950;48.154;16.316;2023-03-01T06:48:23;78.07;;;28.58;;
48161;SDS011;33950;48.154;16.316;2023-03-01T06:51:09;74.13;;;29.67;;
48161;SDS011;33950;48.154;16.316;2023-03-01T06:53:55;85.18;;;31.48;;
48161;SDS011;33950;48.154;16.316;2023-03-01T06:56:42;73.75;;;31.40;;
48161;SDS011;33950;48.154;16.316;2023-03-01T06:59:31;67.28;;;30.08;;
48161;SDS011;33950;48.154;16.316;2023-03-01T07:02:17;65.30;;;29.13;;
48161;SDS011;33950;48.154;16.316;2023-03-01T07:05:04;81.35;;;32.88;;
48161;SDS011;33950;48.154;16.316;2023-03-01T07:07:50;94.95;;;37.50;;
48161;SDS011;33950;48.154;16.316;2023-03-01T07:10:38;93.43;;;38.40;;
48161;SDS011;33950;48.154;16.316;2023-03-01T07:13:25;96.30;;;37.35;;
48161;SDS011;33950;48.154;16.316;2023-03-01T07:16:11;96.82;;;37.60;;
48161;SDS011;33950;48.154;16.316;2023-03-01T07:18:59;101.63;;;39.83;;
48161;SDS011;33950;48.154;16.316;2023-03-01T07:21:45;89.03;;;35.65;;
48161;SDS011;33950;48.154;16.316;2023-03-01T07:24:31;88.00;;;36.55;;
48161;SDS011;33950;48.154;16.316;2023-03-01T07:27:17;83.15;;;35.28;;
48161;SDS011;33950;48.154;16.316;2023-03-01T07:30:06;85.88;;;35.75;;
48161;SDS011;33950;48.154;16.316;2023-03-01T07:32:52;92.03;;;36.53;;
48161;SDS011;33950;48.154;16.316;2023-03-01T07:35:39;84.63;;;36.67;;
48161;SDS011;33950;48.154;16.316;2023-03-01T07:38:25;82.90;;;34.08;;
48161;SDS011;33950;48.154;16.316;2023-03-01T07:41:11;86.55;;;34.78;;
48161;SDS011;33950;48.154;16.316;2023-03-01T07:43:57;80.45;;;34.50;;
48161;SDS011;33950;48.154;16.316;2023-03-01T07:46:45;81.00;;;32.42;;
48161;SDS011;33950;48.154;16.316;2023-03-01T07:49:31;76.18;;;33.40;;
48161;SDS011;33950;48.154;16.316;2023-03-01T07:52:17;73.28;;;31.13;;
48161;SDS011;33950;48.154;16.316;2023-03-01T07:55:03;96.47;;;33.97;;
48161;SDS011;33950;48.154;16.316;2023-03-01T07:57:50;76.35;;;31.58;;
48161;SDS011;33950;48.154;16.316;2023-03-01T08:00:36;75.97;;;31.90;;
48161;SDS011;33950;48.154;16.316;2023-03-01T08:03:23;66.38;;;30.35;;
48161;SDS011;33950;48.154;16.316;2023-03-01T08:06:10;83.60;;;32.88;;
48161;SDS011;33950;48.154;16.316;2023-03-01T08:08:57;75.72;;;31.30;;
48161;SDS011;33950;48.154;16.316;2023-03-01T08:11:43;67.82;;;30.98;;
48161;SDS011;33950;48.154;16.316;2023-03-01T08:14:29;75.57;;;30.70;;
48161;SDS011;33950;48.154;16.316;2023-03-01T08:17:16;75.30;;;32.10;;
48161;SDS011;33950;48.154;16.316;2023-03-01T08:20:03;80.10;;;31.15;;
48161;SDS011;33950;48.154;16.316;2023-03-01T08:22:52;74.63;;;32.58;;
48161;SDS011;33950;48.154;16.316;2023-03-01T08:25:38;75.95;;;33.45;;
48161;SDS011;33950;48.154;16.316;2023-03-01T08:28:24;72.68;;;33.90;;
48161;SDS011;33950;48.154;16.316;2023-03-01T08:31:14;79.07;;;32.58;;
48161;SDS011;33950;48.154;16.316;2023-03-01T08:34:03;79.22;;;35.65;;
48161;SDS011;33950;48.154;16.316;2023-03-01T08:36:51;81.40;;;35.95;;
48161;SDS011;33950;48.154;16.316;2023-03-01T08:39:38;80.78;;;34.22;;
48161;SDS011;33950;48.154;16.316;2023-03-01T08:42:24;85.78;;;34.15;;
48161;SDS011;33950;48.154;16.316;2023-03-01T08:45:10;80.90;;;33.22;;
48161;SDS011;33950;48.154;16.316;2023-03-01T08:47:57;76.10;;;32.42;;
48161;SDS011;33950;48.154;16.316;2023-03-01T08:50:43;74.80;;;31.77;;
48161;SDS011;33950;48.154;16.316;2023-03-01T08:53:30;77.72;;;32.20;;
48161;SDS011;33950;48.154;16.316;2023-03-01T08:56:17;86.70;;;34.40;;
48161;SDS011;33950;48.154;16.316;2023-03-01T08:59:04;94.10;;;34.15;;
48161;SDS011;33950;48.154;16.316;2023-03-01T09:01:50;82.47;;;34.08;;
48161;SDS011;33950;48.154;16.316;2023-03-01T09:04:36;72.22;;;30.83;;
48161;SDS011;33950;48.154;16.316;2023-03-01T09:07:22;71.53;;;31.45;;
48161;SDS011;33950;48.154;16.316;2023-03-01T09:10:15;78.38;;;33.15;;
48161;SDS011;33950;48.154;16.316;2023-03-01T09:13:01;84.25;;;32.85;;
48161;SDS011;33950;48.154;16.316;2023-03-01T09:15:47;81.50;;;31.73;;
48161;SDS011;33950;48.154;16.316;2023-03-01T09:18:33;67.55;;;29.33;;
48161;SDS011;33950;48.154;16.316;2023-03-01T09:21:21;78.72;;;30.83;;
48161;SDS011;33950;48.154;16.316;2023-03-01T09:24:12;75.10;;;30.90;;
48161;SDS011;33950;48.154;16.316;2023-03-01T09:27:01;71.37;;;29.47;;
48161;SDS011;33950;48.154;16.316;2023-03-01T09:29:48;69.03;;;28.70;;
48161;SDS011;33950;48.154;16.316;2023-03-01T09:32:34;70.80;;;28.98;;
48161;SDS011;33950;48.154;16.316;2023-03-01T09:35:20;66.22;;;28.17;;
48161;SDS011;33950;48.154;16.316;2023-03-01T09:38:07;57.78;;;25.58;;
48161;SDS011;33950;48.154;16.316;2023-03-01T09:40:54;59.28;;;26.48;;
48161;SDS011;33950;48.154;16.316;2023-03-01T09:43:42;55.05;;;25.20;;
48161;SDS011;33950;48.154;16.316;2023-03-01T09:46:32;68.50;;;29.08;;
48161;SDS011;33950;48.154;16.316;2023-03-01T09:49:26;57.15;;;27.17;;
48161;SDS011;33950;48.154;16.316;2023-03-01T09:52:19;62.65;;;26.27;;
48161;SDS011;33950;48.154;16.316;2023-03-01T09:55:11;66.85;;;27.25;;
48161;SDS011;33950;48.154;16.316;2023-03-01T09:57:59;60.15;;;25.48;;
48161;SDS011;33950;48.154;16.316;2023-03-01T10:00:52;57.03;;;24.63;;
48161;SDS011;33950;48.154;16.316;2023-03-01T10:03:42;58.30;;;24.85;;
48161;SDS011;33950;48.154;16.316;2023-03-01T10:06:32;54.67;;;23.50;;
48161;SDS011;33950;48.154;16.316;2023-03-01T10:09:18;50.55;;;23.55;;
48161;SDS011;33950;48.154;16.316;2023-03-01T10:12:07;48.55;;;24.58;;
48161;SDS011;33950;48.154;16.316;2023-03-01T10:14:57;53.65;;;23.83;;
48161;SDS011;33950;48.154;16.316;2023-03-01T10:17:50;53.60;;;22.83;;
48161;SDS011;33950;48.154;16.316;2023-03-01T10:20:42;50.08;;;22.83;;
48161;SDS011;33950;48.154;16.316;2023-03-01T10:23:32;51.53;;;24.30;;
48161;SDS011;33950;48.154;16.316;2023-03-01T10:26:30;60.22;;;26.45;;
48161;SDS011;33950;48.154;16.316;2023-03-01T10:29:24;60.05;;;25.85;;
48161;SDS011;33950;48.154;16.316;2023-03-01T10:32:14;54.07;;;24.73;;
48161;SDS011;33950;48.154;16.316;2023-03-01T10:35:14;52.83;;;23.38;;
48161;SDS011;33950;48.154;16.316;2023-03-01T10:38:02;56.25;;;24.23;;
48161;SDS011;33950;48.154;16.316;2023-03-01T10:40:51;46.40;;;24.27;;
48161;SDS011;33950;48.154;16.316;2023-03-01T10:43:44;52.15;;;25.65;;
48161;SDS011;33950;48.154;16.316;2023-03-01T10:46:33;53.78;;;26.30;;
48161;SDS011;33950;48.154;16.316;2023-03-01T10:49:20;60.88;;;26.67;;
48161;SDS011;33950;48.154;16.316;2023-03-01T10:52:16;50.20;;;24.40;;
48161;SDS011;33950;48.154;16.316;2023-03-01T10:58:17;49.25;;;24.27;;
48161;SDS011;33950;48.154;16.316;2023-03-01T11:04:12;50.55;;;23.33;;
48161;SDS011;33950;48.154;16.316;2023-03-01T11:07:00;46.70;;;22.40;;
48161;SDS011;33950;48.154;16.316;2023-03-01T11:09:48;50.75;;;24.58;;
48161;SDS011;33950;48.154;16.316;2023-03-01T11:12:40;49.95;;;24.92;;
48161;SDS011;33950;48.154;16.316;2023-03-01T11:15:26;43.60;;;21.95;;
48161;SDS011;33950;48.154;16.316;2023-03-01T11:18:22;49.30;;;22.58;;
48161;SDS011;33950;48.154;16.316;2023-03-01T11:21:09;39.50;;;21.20;;
48161;SDS011;33950;48.154;16.316;2023-03-01T11:23:55;49.50;;;22.35;;
48161;SDS011;33950;48.154;16.316;2023-03-01T11:26:47;43.70;;;21.88;;
48161;SDS011;33950;48.154;16.316;2023-03-01T11:29:39;44.22;;;21.17;;
48161;SDS011;33950;48.154;16.316;2023-03-01T11:32:30;48.20;;;20.10;;
48161;SDS011;33950;48.154;16.316;2023-03-01T11:35:22;46.50;;;22.58;;
48161;SDS011;33950;48.154;16.316;2023-03-01T11:38:15;45.95;;;21.48;;
48161;SDS011;33950;48.154;16.316;2023-03-01T11:41:08;48.03;;;21.25;;
48161;SDS011;33950;48.154;16.316;2023-03-01T11:44:00;37.88;;;19.63;;
48161;SDS011;33950;48.154;16.316;2023-03-01T11:46:51;43.65;;;19.92;;
48161;SDS011;33950;48.154;16.316;2023-03-01T11:50:01;45.05;;;20.40;;
48161;SDS011;33950;48.154;16.316;2023-03-01T11:53:01;39.47;;;20.05;;
48161;SDS011;33950;48.154;16.316;2023-03-01T11:58:54;40.03;;;19.63;;
48161;SDS011;33950;48.154;16.316;2023-03-01T12:02:13;45.13;;;20.88;;
48161;SDS011;33950;48.154;16.316;2023-03-01T12:05:38;43.15;;;20.75;;
48161;SDS011;33950;48.154;16.316;2023-03-01T12:08:49;46.30;;;21.45;;
48161;SDS011;33950;48.154;16.316;2023-03-01T12:11:51;44.45;;;21.27;;
48161;SDS011;33950;48.154;16.316;2023-03-01T12:14:55;44.60;;;22.42;;
48161;SDS011;33950;48.154;16.316;2023-03-01T12:17:57;42.20;;;21.80;;
48161;SDS011;33950;48.154;16.316;2023-03-01T12:20:58;44.97;;;22.27;;
48161;SDS011;33950;48.154;16.316;2023-03-01T12:23:54;52.38;;;22.25;;
48161;SDS011;33950;48.154;16.316;2023-03-01T12:27:10;42.67;;;22.10;;
48161;SDS011;33950;48.154;16.316;2023-03-01T12:30:15;35.85;;;20.67;;
48161;SDS011;33950;48.154;16.316;2023-03-01T12:33:13;36.88;;;18.90;;
48161;SDS011;33950;48.154;16.316;2023-03-01T12:39:15;41.80;;;21.40;;
48161;SDS011;33950;48.154;16.316;2023-03-01T12:42:13;41.30;;;18.67;;
48161;SDS011;33950;48.154;16.316;2023-03-01T12:45:23;39.65;;;21.60;;
48161;SDS011;33950;48.154;16.316;2023-03-01T12:48:26;44.20;;;19.55;;
48161;SDS011;33950;48.154;16.316;2023-03-01T12:51:23;43.67;;;19.98;;
48161;SDS011;33950;48.154;16.316;2023-03-01T12:54:14;47.58;;;19.08;;
48161;SDS011;33950;48.154;16.316;2023-03-01T12:57:06;38.83;;;18.30;;
48161;SDS011;33950;48.154;16.316;2023-03-01T13:00:02;36.47;;;18.88;;
48161;SDS011;33950;48.154;16.316;2023-03-01T13:02:58;37.10;;;18.30;;
48161;SDS011;33950;48.154;16.316;2023-03-01T13:06:02;39.83;;;18.92;;
48161;SDS011;33950;48.154;16.316;2023-03-01T13:08:58;37.30;;;18.90;;
48161;SDS011;33950;48.154;16.316;2023-03-01T13:11:50;38.55;;;19.17;;
48161;SDS011;33950;48.154;16.316;2023-03-01T13:14:37;39.13;;;19.05;;
48161;SDS011;33950;48.154;16.316;2023-03-01T13:17:32;39.97;;;18.42;;
48161;SDS011;33950;48.154;16.316;2023-03-01T13:20:27;34.97;;;19.17;;
48161;SDS011;33950;48.154;16.316;2023-03-01T13:23:24;31.60;;;19.00;;
48161;SDS011;33950;48.154;16.316;2023-03-01T13:26:12;36.78;;;18.48;;
48161;SDS011;33950;48.154;16.316;2023-03-01T13:29:00;35.13;;;18.63;;
48161;SDS011;33950;48.154;16.316;2023-03-01T13:31:56;32.67;;;17.60;;
48161;SDS011;33950;48.154;16.316;2023-03-01T13:34:47;34.92;;;18.45;;
48161;SDS011;33950;48.154;16.316;2023-03-01T13:37:39;34.55;;;18.80;;
48161;SDS011;33950;48.154;16.316;2023-03-01T13:43:44;38.13;;;19.00;;
48161;SDS011;33950;48.154;16.316;2023-03-01T13:46:32;40.13;;;20.48;;
48161;SDS011;33950;48.154;16.316;2023-03-01T13:49:19;35.92;;;18.50;;
48161;SDS011;33950;48.154;16.316;2023-03-01T13:52:13;34.08;;;18.23;;
48161;SDS011;33950;48.154;16.316;2023-03-01T13:55:20;36.78;;;17.83;;
48161;SDS011;33950;48.154;16.316;2023-03-01T13:58:16;39.20;;;21.10;;
48161;SDS011;33950;48.154;16.316;2023-03-01T14:01:06;39.25;;;19.92;;
48161;SDS011;33950;48.154;16.316;2023-03-01T14:04:18;36.08;;;20.08;;
48161;SDS011;33950;48.154;16.316;2023-03-01T14:07:10;34.67;;;19.07;;
48161;SDS011;33950;48.154;16.316;2023-03-01T14:10:03;42.80;;;20.25;;
48161;SDS011;33950;48.154;16.316;2023-03-01T14:12:53;35.97;;;19.55;;
48161;SDS011;33950;48.154;16.316;2023-03-01T14:15:49;35.40;;;19.48;;
48161;SDS011;33950;48.154;16.316;2023-03-01T14:18:44;36.45;;;19.50;;
48161;SDS011;33950;48.154;16.316;2023-03-01T14:21:37;39.53;;;20.63;;
48161;SDS011;33950;48.154;16.316;2023-03-01T14:24:23;31.70;;;17.88;;
48161;SDS011;33950;48.154;16.316;2023-03-01T14:27:12;37.17;;;18.63;;
48161;SDS011;33950;48.154;16.316;2023-03-01T14:30:02;30.70;;;18.17;;
48161;SDS011;33950;48.154;16.316;2023-03-01T14:32:55;33.65;;;16.90;;
48161;SDS011;33950;48.154;16.316;2023-03-01T14:35:51;35.22;;;18.55;;
48161;SDS011;33950;48.154;16.316;2023-03-01T14:38:43;34.15;;;17.02;;
48161;SDS011;33950;48.154;16.316;2023-03-01T14:41:33;33.92;;;18.77;;
48161;SDS011;33950;48.154;16.316;2023-03-01T14:44:21;34.75;;;17.83;;
48161;SDS011;33950;48.154;16.316;2023-03-01T14:47:12;34.42;;;17.92;;
48161;SDS011;33950;48.154;16.316;2023-03-01T14:50:02;35.17;;;18.23;;
48161;SDS011;33950;48.154;16.316;2023-03-01T14:52:54;32.90;;;16.73;;
48161;SDS011;33950;48.154;16.316;2023-03-01T14:55:42;32.03;;;17.15;;
48161;SDS011;33950;48.154;16.316;2023-03-01T14:58:32;32.90;;;17.95;;
48161;SDS011;33950;48.154;16.316;2023-03-01T15:01:18;37.75;;;17.70;;
48161;SDS011;33950;48.154;16.316;2023-03-01T15:04:12;39.88;;;19.20;;
48161;SDS011;33950;48.154;16.316;2023-03-01T15:07:02;33.75;;;17.20;;
48161;SDS011;33950;48.154;16.316;2023-03-01T15:09:50;31.70;;;17.38;;
48161;SDS011;33950;48.154;16.316;2023-03-01T15:12:39;33.15;;;18.73;;
48161;SDS011;33950;48.154;16.316;2023-03-01T15:15:34;33.97;;;17.95;;
48161;SDS011;33950;48.154;16.316;2023-03-01T15:18:22;38.10;;;18.67;;
48161;SDS011;33950;48.154;16.316;2023-03-01T15:21:18;33.10;;;18.75;;
48161;SDS011;33950;48.154;16.316;2023-03-01T15:24:16;43.03;;;20.67;;
48161;SDS011;33950;48.154;16.316;2023-03-01T15:27:05;34.63;;;19.63;;
48161;SDS011;33950;48.154;16.316;2023-03-01T15:30:01;38.15;;;18.90;;
48161;SDS011;33950;48.154;16.316;2023-03-01T15:32:48;43.03;;;20.55;;
48161;SDS011;33950;48.154;16.316;2023-03-01T15:39:31;42.75;;;20.02;;
48161;SDS011;33950;48.154;16.316;2023-03-01T15:45:26;41.45;;;21.00;;
48161;SDS011;33950;48.154;16.316;2023-03-01T15:48:14;43.90;;;22.75;;
48161;SDS011;33950;48.154;16.316;2023-03-01T15:51:04;46.67;;;22.60;;
48161;SDS011;33950;48.154;16.316;2023-03-01T15:53:58;46.67;;;22.85;;
48161;SDS011;33950;48.154;16.316;2023-03-01T15:56:46;45.30;;;23.38;;
48161;SDS011;33950;48.154;16.316;2023-03-01T15:59:32;39.65;;;21.88;;
48161;SDS011;33950;48.154;16.316;2023-03-01T16:02:18;38.53;;;22.20;;
48161;SDS011;33950;48.154;16.316;2023-03-01T16:05:08;43.67;;;22.50;;
48161;SDS011;33950;48.154;16.316;2023-03-01T16:08:02;45.35;;;22.70;;
48161;SDS011;33950;48.154;16.316;2023-03-01T16:10:55;40.67;;;21.77;;
48161;SDS011;33950;48.154;16.316;2023-03-01T16:13:43;41.10;;;20.35;;
48161;SDS011;33950;48.154;16.316;2023-03-01T16:16:30;39.25;;;20.48;;
48161;SDS011;33950;48.154;16.316;2023-03-01T16:19:17;48.67;;;21.67;;
48161;SDS011;33950;48.154;16.316;2023-03-01T16:22:03;44.42;;;23.65;;
48161;SDS011;33950;48.154;16.316;2023-03-01T16:24:49;48.58;;;21.27;;
48161;SDS011;33950;48.154;16.316;2023-03-01T16:27:36;50.65;;;23.90;;
48161;SDS011;33950;48.154;16.316;2023-03-01T16:30:23;46.58;;;23.35;;
48161;SDS011;33950;48.154;16.316;2023-03-01T16:33:09;43.65;;;23.65;;
48161;SDS011;33950;48.154;16.316;2023-03-01T16:35:55;47.33;;;22.88;;
48161;SDS011;33950;48.154;16.316;2023-03-01T16:38:41;44.25;;;23.52;;